Share

Morris, MN

Morris Municipal (KMOX) Elev 1129 ft | 45.57 °N, 95.97 °W | Change Station
Active Advisory: Fire Weather Watch Active Notice: Public Information Statement

Current weather conditions updated 7 minutes ago

Mostly Cloudy
Mostly Cloudy
57 °F
Feels Like 57 °F
N
8
Wind Variable Wind from ESE
Sunrise 6:29 AM
Sunset 8:16 PM
Moon Waning Gibbous

Tomorrow is forecast to be Much Cooler than today.

Pressure 29.92 in
Visibility 10.0 miles
Clouds Mostly Cloudy 10000 ft
Dew Point 39 °F
Humidity 51%
Rainfall 0.00 in
Snow Depth Not available.
UV 0 out of 16
Pollen 10.30 out of 12
Air Quality Not available.
Flu Activity Sporadic
METAR KMOX 210231Z AUTO 11007KT 10SM BKN100 14/04 A2992 RMK AO2

More Conditions Fewer Conditions

Pressure 29.92 in
Visibility 10.0 miles
Clouds Mostly Cloudy 10000 ft
Dew Point 39 °F
Humidity 51%
Rainfall 0.00 in
Snow Depth Not available.
UV 0 out of 16
Pollen 10.30 out of 12
Air Quality Not available.
Flu Activity Sporadic
METAR KMOX 210231Z AUTO 11007KT 10SM BKN100 14/04 A2992 RMK AO2

More Conditions Fewer Conditions

10-Day Weather Forecast

Almanac

Astronomy

Apr. 20, 2014 Rise Set
Actual Time 6:29 AM CDT 8:16 PM CDT
Civil Twilight 5:57 AM CDT 8:48 PM CDT
Nautical Twilight 5:19 AM CDT 9:26 PM CDT
Astronomical Twilight 4:37 AM CDT 10:08 PM CDT
Moon 1:03 AM CDT (4/20) 10:45 AM CDT (4/20)
Length of Visible Light 14h 50m
Length of Day
13h 47m
Tomorrow will be 2m 59s longer.
Waning Gibbous, 64% of the Moon is Illuminated
Today
Waning Gibbous
Apr 22
Last Quarter
Apr 29
New
May 6
First Quarter
May 14
Full

Today's Extremes

State Highs State Lows

Community

  • Sun Pillar and Geese
    Sun Pillar and Geese
  • Showers on the Way
    Showers on the Way
  • Easter Morning Fog
    Easter Morning Fog
  • Easter Dance
    Easter Dance
  • spring skiing mount Baker WA
    spring skiing mount Baker WA

WunderPhotos

Upload Photos

1,703,524 photos uploaded!

WunderBlogs® & News

Nearby

Snow Depth

Station Depth Elevation
No new snow has been reported.

Coastal Water Temperatures

Place Temperature
No Stations Reporting

Earthquake Activity

City Distance Mag. Time & Date
No recent earthquake activity has been reported nearby.
Minimum magnitude displayed is 2.5.

Nearby Weather Stations

Station Location Temp. Dew Point Humidity Wind Precip. Elev Updated Type
stevens twsp, Chokio, MN 60.2 °F 40 °F 47% East  at  1.0 mph 0.00 in / hr 1131 ft 9:34 PM CDT Normal

Show More Stations Show Fewer Stations

What do you think?

We're not finished. Please let us know what you like, what you don't like, and what you are still missing.